createdAt,value
2022-12-09T00:00:21.197Z,100009.34
2022-12-09T00:02:47.830Z,99997.38
2022-12-09T00:05:14.789Z,99994.75
2022-12-09T00:07:41.191Z,100003.38
2022-12-09T00:10:08.374Z,99978.47
2022-12-09T00:12:35.160Z,99967.34
2022-12-09T00:15:01.539Z,99917.56
2022-12-09T00:17:28.205Z,99949.34
2022-12-09T00:19:54.768Z,100008.69
2022-12-09T00:22:21.167Z,100013.88
2022-12-09T00:24:47.552Z,100005.25
2022-12-09T00:27:13.998Z,99965.69
2022-12-09T00:29:40.544Z,99976.09
2022-12-09T00:32:07.080Z,99919.38
2022-12-09T00:34:33.576Z,99940.03
2022-12-09T00:37:00.114Z,99951.19
2022-12-09T00:39:26.597Z,99982.97
2022-12-09T00:41:53.006Z,100023.34
2022-12-09T00:44:19.493Z,99981.19
2022-12-09T00:46:46.030Z,100020.75
2022-12-09T00:49:12.681Z,99983.78
2022-12-09T00:51:39.168Z,99979.44
2022-12-09T00:54:05.651Z,99988.84
2022-12-09T00:56:32.377Z,99951.88
2022-12-09T00:58:59.322Z,99962.22
2022-12-09T01:01:26.676Z,99984.56
2022-12-09T01:03:53.535Z,99988.00
2022-12-09T01:06:23.798Z,99944.94
2022-12-09T01:08:50.837Z,100011.88
2022-12-09T01:11:27.014Z,99987.81
2022-12-09T01:13:54.690Z,100012.72
2022-12-09T01:16:26.596Z,99989.50
2022-12-09T01:18:55.258Z,99962.84
2022-12-09T01:21:21.715Z,99960.41
2022-12-09T01:23:48.073Z,100011.97
2022-12-09T01:26:14.416Z,99972.50
2022-12-09T01:28:41.012Z,99987.97
2022-12-09T01:31:10.271Z,99996.47
2022-12-09T01:33:37.066Z,100004.19
2022-12-09T01:36:09.741Z,99956.94
2022-12-09T01:38:36.361Z,100010.25
2022-12-09T01:41:03.311Z,100024.03
2022-12-09T01:43:30.016Z,100026.63
2022-12-09T01:45:56.830Z,99944.19
2022-12-09T01:48:35.014Z,99957.91
2022-12-09T01:51:19.005Z,100000.88
2022-12-09T01:53:49.574Z,99994.81
2022-12-09T01:56:29.378Z,99997.38
2022-12-09T01:59:02.416Z,99994.81
2022-12-09T02:01:29.315Z,99969.91
2022-12-09T02:03:56.217Z,99972.44
2022-12-09T02:06:22.799Z,99969.00
2022-12-09T02:08:50.786Z,100007.63
2022-12-09T02:11:26.615Z,100006.81
2022-12-09T02:14:24.383Z,99986.19
2022-12-09T02:17:09.420Z,100014.63
2022-12-09T02:20:01.516Z,100012.03
2022-12-09T02:22:34.655Z,100003.41
2022-12-09T02:25:30.428Z,99975.09
2022-12-09T02:28:15.624Z,99999.19
2022-12-09T02:31:26.463Z,99982.91
2022-12-09T02:34:17.403Z,99990.69
2022-12-09T02:37:02.570Z,99993.22
2022-12-09T02:39:53.044Z,99961.44
2022-12-09T02:42:22.882Z,99976.00
2022-12-09T02:44:51.583Z,99994.03
2022-12-09T02:47:21.240Z,99978.53
2022-12-09T02:49:51.845Z,99999.22
2022-12-09T02:52:19.474Z,99964.88
2022-12-09T02:54:47.002Z,99958.88
2022-12-09T02:57:24.060Z,100000.09
2022-12-09T02:59:50.714Z,99957.06
2022-12-09T03:02:28.351Z,99969.06
2022-12-09T03:05:28.752Z,99987.09
2022-12-09T03:08:23.160Z,99995.66
2022-12-09T03:11:07.617Z,99993.16
2022-12-09T03:13:42.894Z,99989.78
2022-12-09T03:16:18.432Z,99969.19
2022-12-09T03:18:50.749Z,99976.03
2022-12-09T03:21:20.941Z,99971.69
2022-12-09T03:23:50.149Z,99950.16
2022-12-09T03:26:17.988Z,99933.91
2022-12-09T03:28:49.239Z,99935.59
2022-12-09T03:31:19.868Z,99944.16
2022-12-09T03:33:49.118Z,99871.16
2022-12-09T03:36:18.449Z,99944.22
2022-12-09T03:38:48.439Z,99958.81
2022-12-09T03:41:24.263Z,99967.38
2022-12-09T03:43:55.446Z,99904.66
2022-12-09T03:46:23.181Z,99938.19
2022-12-09T03:48:50.112Z,99927.84
2022-12-09T03:51:21.129Z,99958.72
2022-12-09T03:53:55.970Z,99900.28
2022-12-09T03:56:27.564Z,99958.63
2022-12-09T03:58:56.607Z,99956.88
2022-12-09T04:01:25.305Z,99954.28
2022-12-09T04:03:54.525Z,99958.56
2022-12-09T04:06:21.886Z,99935.41
2022-12-09T04:08:48.607Z,99931.00
2022-12-09T04:11:15.315Z,99932.72
2022-12-09T04:13:41.890Z,99918.16
2022-12-09T04:16:09.468Z,99910.44
2022-12-09T04:18:35.989Z,99917.22
2022-12-09T04:21:07.329Z,99885.41
2022-12-09T04:23:37.886Z,99927.47
2022-12-09T04:26:08.120Z,99913.75
2022-12-09T04:28:34.463Z,99951.59
2022-12-09T04:31:01.036Z,99945.53
2022-12-09T04:33:27.755Z,99891.47
2022-12-09T04:35:54.518Z,99950.69
2022-12-09T04:38:20.892Z,99896.59
2022-12-09T04:40:47.517Z,99940.44
2022-12-09T04:43:13.980Z,99961.94
2022-12-09T04:45:40.666Z,99919.03
2022-12-09T04:48:07.707Z,99888.06
2022-12-09T04:50:34.175Z,99924.13
2022-12-09T04:53:00.614Z,99913.78
2022-12-09T04:55:27.439Z,99911.28
2022-12-09T04:57:54.261Z,99932.75
2022-12-09T05:00:21.226Z,99917.31
2022-12-09T05:02:47.742Z,99882.91
2022-12-09T05:05:14.997Z,99932.75
2022-12-09T05:07:42.173Z,99899.22
2022-12-09T05:10:09.882Z,99918.88
2022-12-09T05:12:37.168Z,99924.88
2022-12-09T05:15:04.031Z,99824.34
2022-12-09T05:17:30.688Z,99930.88
2022-12-09T05:19:57.577Z,99830.38
2022-12-09T05:22:27.244Z,99826.91
2022-12-09T05:24:53.696Z,99836.31
2022-12-09T05:27:20.247Z,99832.91
2022-12-09T05:29:47.569Z,99800.34
2022-12-09T05:32:14.598Z,99825.19
2022-12-09T05:34:41.314Z,99920.50
2022-12-09T05:37:07.869Z,99796.81
2022-12-09T05:39:34.978Z,99747.97
2022-12-09T05:42:01.833Z,99907.69
2022-12-09T05:44:28.512Z,99698.25
2022-12-09T05:46:55.102Z,99893.03
2022-12-09T05:49:22.120Z,99920.47
2022-12-09T05:51:49.050Z,99900.66
2022-12-09T05:54:18.785Z,99877.50
2022-12-09T05:56:48.317Z,99879.19
2022-12-09T05:59:15.717Z,99933.34
2022-12-09T06:01:42.257Z,99851.69
2022-12-09T06:04:09.353Z,99832.03
2022-12-09T06:06:36.247Z,99861.22
2022-12-09T06:09:03.740Z,99913.63
2022-12-09T06:14:12.704Z,99899.91
2022-12-09T06:16:44.777Z,99770.28
2022-12-09T06:19:12.367Z,99808.84
2022-12-09T06:21:40.912Z,99748.78
2022-12-09T06:24:08.648Z,99800.25
2022-12-09T06:26:35.557Z,99898.19
2022-12-09T06:29:02.428Z,99913.66
2022-12-09T06:31:30.237Z,99898.19
2022-12-09T06:33:58.426Z,99907.63
2022-12-09T06:36:35.648Z,99692.22
2022-12-09T06:39:10.024Z,99901.59
2022-12-09T06:41:40.215Z,99905.94
2022-12-09T06:44:06.840Z,99896.50
2022-12-09T06:46:33.792Z,99918.78
2022-12-09T06:49:00.418Z,99796.94
2022-12-09T06:51:30.100Z,99772.81
2022-12-09T06:53:56.695Z,99852.63
2022-12-09T06:56:36.249Z,99898.13
2022-12-09T06:59:07.180Z,99899.84
2022-12-09T07:01:35.127Z,99930.88
2022-12-09T07:04:04.309Z,99788.38
2022-12-09T07:06:39.556Z,99922.22
2022-12-09T07:09:36.272Z,99929.91
2022-12-09T07:12:03.600Z,99903.31
2022-12-09T07:14:30.124Z,99936.78
2022-12-09T07:16:56.653Z,99905.03
2022-12-09T07:19:23.987Z,99897.25
2022-12-09T07:21:51.700Z,99784.00
2022-12-09T07:24:19.288Z,99895.63
2022-12-09T07:26:47.004Z,99932.47
2022-12-09T07:29:13.581Z,99898.13
2022-12-09T07:31:40.620Z,99899.88
2022-12-09T07:34:07.631Z,99762.53
2022-12-09T07:36:35.773Z,99921.38
2022-12-09T07:39:05.739Z,99867.16
2022-12-09T07:41:32.548Z,99920.50
2022-12-09T07:43:59.224Z,99923.03
2022-12-09T07:46:29.718Z,99929.03
2022-12-09T07:48:57.617Z,99947.91
2022-12-09T07:51:25.143Z,99882.63
2022-12-09T07:53:51.859Z,99934.19
2022-12-09T07:56:19.626Z,99825.94
2022-12-09T07:58:48.051Z,99907.50
2022-12-09T08:01:20.494Z,99949.63
2022-12-09T08:03:48.548Z,99957.31
2022-12-09T08:06:20.456Z,99839.66
2022-12-09T08:08:48.217Z,99824.22
2022-12-09T08:11:18.158Z,99850.13
2022-12-09T08:13:48.260Z,99942.00
2022-12-09T08:16:16.815Z,99939.28
2022-12-09T08:18:45.622Z,99879.97
2022-12-09T08:21:16.724Z,99882.69
2022-12-09T08:23:44.098Z,99863.75
2022-12-09T08:26:12.942Z,99946.97
2022-12-09T08:31:56.864Z,99883.41
2022-12-09T08:34:23.386Z,99955.53
2022-12-09T08:36:50.310Z,99876.56
2022-12-09T08:39:16.933Z,99757.13
2022-12-09T08:41:44.578Z,99841.25
2022-12-09T08:44:17.192Z,99968.34
2022-12-09T08:46:49.305Z,99817.19
2022-12-09T08:49:18.896Z,99882.38
2022-12-09T08:51:47.451Z,99940.75
2022-12-09T08:54:13.979Z,99905.56
2022-12-09T08:56:44.779Z,99945.91
2022-12-09T08:59:11.167Z,99920.22
2022-12-09T09:01:37.585Z,99937.47
2022-12-09T09:04:08.135Z,99964.06
2022-12-09T09:06:37.353Z,99943.41
2022-12-09T09:09:06.091Z,99939.94
2022-12-09T09:11:33.737Z,99855.84
2022-12-09T09:14:04.146Z,99830.13
2022-12-09T09:16:30.745Z,99951.16
2022-12-09T09:18:58.269Z,99907.38
2022-12-09T09:21:27.799Z,99972.56
2022-12-09T09:23:54.874Z,99813.78
2022-12-09T09:26:23.962Z,99949.44
2022-12-09T09:28:53.762Z,99871.13
2022-12-09T09:31:29.122Z,99867.69
2022-12-09T09:33:56.374Z,99956.91
2022-12-09T09:36:24.810Z,99902.09
2022-12-09T09:39:00.203Z,99974.91
2022-12-09T09:41:55.502Z,99973.09
2022-12-09T09:44:42.007Z,99936.97
2022-12-09T09:47:34.750Z,99967.84
2022-12-09T09:50:18.216Z,99974.66
2022-12-09T09:52:45.381Z,99923.09
2022-12-09T09:55:18.370Z,99964.09
2022-12-09T09:57:57.554Z,99932.19
2022-12-09T10:00:38.247Z,99885.16
2022-12-09T10:03:53.599Z,99967.38
2022-12-09T10:06:30.029Z,99969.00
2022-12-09T10:09:07.026Z,99908.88
2022-12-09T10:11:55.268Z,99843.63
2022-12-09T10:14:51.312Z,99961.72
2022-12-09T10:17:29.011Z,99938.53
2022-12-09T10:20:05.068Z,99957.25
2022-12-09T10:22:44.957Z,99919.81
2022-12-09T10:25:26.684Z,99950.63
2022-12-09T10:28:26.960Z,99953.09
2022-12-09T10:30:55.632Z,99908.47
2022-12-09T10:33:41.025Z,99956.47
2022-12-09T10:36:22.145Z,99958.25
2022-12-09T10:38:48.769Z,99923.91
2022-12-09T10:42:10.563Z,99915.97
2022-12-09T10:44:38.206Z,99948.63
2022-12-09T10:47:28.241Z,99949.47
2022-12-09T10:49:55.638Z,99927.94
2022-12-09T10:52:25.695Z,99822.38
2022-12-09T10:54:52.996Z,99943.69
2022-12-09T10:57:19.617Z,99933.00
2022-12-09T10:59:59.491Z,99907.25
2022-12-09T11:02:26.403Z,99900.84
2022-12-09T11:04:54.712Z,99834.56
2022-12-09T11:07:27.154Z,99731.81
2022-12-09T11:09:56.950Z,99921.19
2022-12-09T11:12:27.389Z,99929.03
2022-12-09T11:14:59.791Z,99912.75
2022-12-09T11:17:36.013Z,99887.13
2022-12-09T11:20:05.756Z,99918.31
2022-12-09T11:22:41.204Z,99879.84
2022-12-09T11:25:11.143Z,99917.66
2022-12-09T11:27:41.486Z,99869.00
2022-12-09T11:30:29.133Z,99921.13
2022-12-09T11:32:59.063Z,99916.50
2022-12-09T11:35:44.907Z,99914.69
2022-12-09T11:38:45.378Z,99908.69
2022-12-09T11:41:53.729Z,99756.03
2022-12-09T11:44:44.312Z,99817.69
2022-12-09T11:47:13.676Z,99915.44
2022-12-09T11:49:54.506Z,99887.22
2022-12-09T11:52:25.335Z,99886.41
2022-12-09T11:55:05.884Z,99865.97
2022-12-09T11:57:38.127Z,99750.25
2022-12-09T12:00:16.269Z,99870.50
2022-12-09T12:03:15.001Z,99807.91
2022-12-09T12:05:43.452Z,99880.00
2022-12-09T12:08:22.233Z,99904.81
2022-12-09T12:11:17.904Z,99870.53
2022-12-09T12:13:48.428Z,99910.06
2022-12-09T12:16:26.081Z,99893.63
2022-12-09T12:19:09.858Z,99898.50
2022-12-09T12:22:09.436Z,99899.09
2022-12-09T12:24:50.966Z,99900.25
2022-12-09T12:27:37.345Z,99872.69
2022-12-09T12:30:09.527Z,99877.09
2022-12-09T12:33:11.874Z,99895.28
2022-12-09T12:35:54.331Z,99882.25
2022-12-09T12:38:42.473Z,99888.19
2022-12-09T12:41:08.717Z,99885.56
2022-12-09T12:44:00.173Z,99887.34
2022-12-09T12:46:59.686Z,99857.69
2022-12-09T12:50:00.612Z,99833.84
2022-12-09T12:52:55.589Z,99887.84
2022-12-09T12:55:50.950Z,99885.31
2022-12-09T12:58:58.259Z,99868.22
2022-12-09T13:01:30.794Z,99887.03
2022-12-09T13:04:42.302Z,99846.75
2022-12-09T13:07:21.845Z,99882.97
2022-12-09T13:10:03.351Z,99886.44
2022-12-09T13:12:56.943Z,99815.28
2022-12-09T13:15:40.342Z,99875.09
2022-12-09T13:18:16.795Z,99755.25
2022-12-09T13:20:49.678Z,99810.41
2022-12-09T13:23:21.977Z,99859.19
2022-12-09T13:26:09.335Z,99753.66
2022-12-09T13:29:13.419Z,99879.59
2022-12-09T13:31:53.548Z,99851.03
2022-12-09T13:34:36.985Z,99873.19
2022-12-09T13:37:03.719Z,99875.72
2022-12-09T13:39:39.120Z,99875.66
2022-12-09T13:42:46.532Z,99883.41
2022-12-09T13:45:39.434Z,99828.56
2022-12-09T13:48:28.468Z,99871.53
2022-12-09T13:50:59.385Z,99880.28
2022-12-09T13:53:46.094Z,99883.81
2022-12-09T13:56:16.162Z,99883.63
2022-12-09T13:59:14.717Z,99775.91
2022-12-09T14:01:50.451Z,99769.00
2022-12-09T14:04:26.628Z,99708.25
2022-12-09T14:07:14.810Z,99873.56
2022-12-09T14:09:44.162Z,99875.31
2022-12-09T14:12:14.321Z,99826.41
2022-12-09T14:14:43.707Z,99873.41
2022-12-09T14:17:26.647Z,99787.06
2022-12-09T14:20:21.824Z,99709.28
2022-12-09T14:23:06.470Z,99888.19
2022-12-09T14:25:36.143Z,99895.72
2022-12-09T14:28:11.678Z,99896.56
2022-12-09T14:31:00.756Z,99901.66
2022-12-09T14:33:31.316Z,99899.06
2022-12-09T14:36:08.848Z,99883.72
2022-12-09T14:42:12.410Z,99790.41
2022-12-09T14:45:02.228Z,99884.72
2022-12-09T14:47:32.296Z,99876.94
2022-12-09T14:50:15.450Z,99748.50
2022-12-09T14:53:01.011Z,99898.41
2022-12-09T14:55:30.176Z,99913.13
2022-12-09T14:57:59.863Z,99865.06
2022-12-09T15:00:40.244Z,99678.28
2022-12-09T15:03:44.500Z,99914.88
2022-12-09T15:06:16.440Z,99913.16
2022-12-09T15:08:42.941Z,99823.44
2022-12-09T15:11:25.082Z,99916.84
2022-12-09T15:13:53.903Z,99812.41
2022-12-09T15:16:24.802Z,99925.75
2022-12-09T15:18:52.926Z,99875.19
2022-12-09T15:21:27.766Z,99927.47
2022-12-09T15:23:54.953Z,99889.84
2022-12-09T15:26:25.627Z,99923.13
2022-12-09T15:28:55.882Z,99907.88
2022-12-09T15:31:28.319Z,99914.78
2022-12-09T15:33:57.713Z,99780.09
2022-12-09T15:36:41.396Z,99905.44
2022-12-09T15:39:33.723Z,99916.75
2022-12-09T15:42:12.754Z,99911.53
2022-12-09T15:44:53.383Z,99910.78
2022-12-09T15:47:38.856Z,99939.41
2022-12-09T15:50:21.288Z,99939.44
2022-12-09T15:52:54.858Z,99933.44
2022-12-09T15:55:32.132Z,99934.22
2022-12-09T15:58:00.649Z,99914.50
2022-12-09T16:00:27.255Z,99912.00
2022-12-09T16:02:53.890Z,99922.25
2022-12-09T16:05:23.932Z,99775.59
2022-12-09T16:07:56.589Z,99916.28
2022-12-09T16:10:26.545Z,99938.66
2022-12-09T16:13:15.993Z,99917.25
2022-12-09T16:15:52.721Z,99931.72
2022-12-09T16:18:33.354Z,99931.72
2022-12-09T16:21:15.002Z,99936.88
2022-12-09T16:23:46.901Z,99888.06
2022-12-09T16:26:35.214Z,99931.81
2022-12-09T16:29:04.870Z,99935.41
2022-12-09T16:31:31.557Z,99934.59
2022-12-09T16:33:58.087Z,99867.84
2022-12-09T16:36:27.467Z,99951.16
2022-12-09T16:39:31.738Z,99858.47
2022-12-09T16:42:01.575Z,99939.09
2022-12-09T16:44:36.144Z,99936.59
2022-12-09T16:47:16.006Z,99935.75
2022-12-09T16:49:46.011Z,99934.03
2022-12-09T16:52:24.077Z,99923.75
2022-12-09T16:54:51.280Z,99946.00
2022-12-09T16:57:20.115Z,99946.00
2022-12-09T16:59:46.808Z,99927.09
2022-12-09T17:02:38.942Z,99912.50
2022-12-09T17:05:06.398Z,99920.22
2022-12-09T17:07:33.131Z,99868.84
2022-12-09T17:09:59.465Z,99958.19
2022-12-09T17:12:25.907Z,99932.38
2022-12-09T17:14:52.455Z,99808.75
2022-12-09T17:17:18.950Z,99783.00
2022-12-09T17:19:45.304Z,99959.91
2022-12-09T17:22:11.793Z,99970.16
2022-12-09T17:24:38.381Z,99875.69
2022-12-09T17:27:04.696Z,99920.38
2022-12-09T17:29:31.059Z,99963.41
2022-12-09T17:31:57.467Z,99870.59
2022-12-09T17:34:23.817Z,99937.59
2022-12-09T17:36:50.242Z,99971.94
2022-12-09T17:39:16.689Z,99935.78
2022-12-09T17:41:43.014Z,99939.28
2022-12-09T17:44:11.852Z,99961.66
2022-12-09T17:46:38.319Z,99904.81
2022-12-09T17:49:04.683Z,99872.06
2022-12-09T17:51:35.916Z,99926.94
2022-12-09T17:54:03.418Z,99969.84
2022-12-09T17:56:29.810Z,99921.75
2022-12-09T17:58:59.776Z,99984.44
2022-12-09T18:01:29.477Z,99963.88
2022-12-09T18:04:06.216Z,99929.50
2022-12-09T18:06:35.822Z,99942.38
2022-12-09T18:09:08.665Z,99997.41
2022-12-09T18:11:35.760Z,100002.59
2022-12-09T18:14:02.354Z,99849.78
2022-12-09T18:16:28.938Z,99873.94
2022-12-09T18:18:55.401Z,99895.50
2022-12-09T18:21:22.004Z,99841.34
2022-12-09T18:23:48.652Z,99963.28
2022-12-09T18:26:18.636Z,99892.00
2022-12-09T18:28:45.566Z,100007.09
2022-12-09T18:31:18.920Z,99884.34
2022-12-09T18:33:45.473Z,99982.28
2022-12-09T18:36:15.378Z,99884.38
2022-12-09T18:38:42.764Z,100024.38
2022-12-09T18:41:20.019Z,99980.63
2022-12-09T18:43:48.024Z,100020.94
2022-12-09T18:46:21.393Z,100028.72
2022-12-09T18:49:14.585Z,99997.66
2022-12-09T18:51:43.201Z,99995.13
2022-12-09T18:54:14.271Z,100011.53
2022-12-09T18:56:40.704Z,100008.09
2022-12-09T18:59:08.596Z,99889.72
2022-12-09T19:01:39.736Z,100031.47
2022-12-09T19:04:08.651Z,100030.63
2022-12-09T19:06:37.321Z,99903.44
2022-12-09T19:09:10.056Z,99842.47
2022-12-09T19:11:37.964Z,99886.31
2022-12-09T19:14:05.786Z,100004.00
2022-12-09T19:16:32.903Z,99899.91
2022-12-09T19:19:05.530Z,100001.22
2022-12-09T19:21:35.422Z,99966.88
2022-12-09T19:24:01.783Z,100014.91
2022-12-09T19:26:30.587Z,100040.66
2022-12-09T19:28:59.789Z,100033.84
2022-12-09T19:31:37.807Z,99920.56
2022-12-09T19:34:16.032Z,100042.69
2022-12-09T19:36:43.526Z,100015.25
2022-12-09T19:39:10.962Z,100042.72
2022-12-09T19:41:38.318Z,100001.47
2022-12-09T19:44:05.109Z,100026.41
2022-12-09T19:46:32.570Z,99886.44
2022-12-09T19:48:59.551Z,100039.41
2022-12-09T19:51:27.285Z,100034.25
2022-12-09T19:53:55.464Z,100001.63
2022-12-09T19:56:23.013Z,100048.97
2022-12-09T19:58:50.621Z,99938.06
2022-12-09T20:01:25.956Z,100024.03
2022-12-09T20:04:18.978Z,99936.44
2022-12-09T20:06:51.038Z,99998.41
2022-12-09T20:09:23.905Z,99987.31
2022-12-09T20:11:51.428Z,100049.22
2022-12-09T20:14:20.990Z,99825.75
2022-12-09T20:16:47.539Z,99943.50
2022-12-09T20:19:14.065Z,99879.94
2022-12-09T20:21:40.609Z,99934.94
2022-12-09T20:24:08.107Z,99952.16
2022-12-09T20:26:36.755Z,100026.97
2022-12-09T20:29:07.494Z,99869.63
2022-12-09T20:31:36.151Z,100022.69
2022-12-09T20:34:05.412Z,99867.91
2022-12-09T20:36:34.174Z,99885.09
2022-12-09T20:39:05.361Z,99925.50
2022-12-09T20:41:33.292Z,99902.28
2022-12-09T20:44:00.341Z,100069.13
2022-12-09T20:46:29.283Z,100057.09
2022-12-09T20:48:56.718Z,100026.13
2022-12-09T20:51:31.738Z,100057.94
2022-12-09T20:53:59.189Z,99948.72
2022-12-09T20:56:27.806Z,100077.75
2022-12-09T20:58:54.533Z,99931.53
2022-12-09T21:01:24.305Z,100028.72
2022-12-09T21:03:51.465Z,100042.47
2022-12-09T21:06:20.538Z,100062.28
2022-12-09T21:08:47.634Z,100058.84
2022-12-09T21:11:17.551Z,100076.03
2022-12-09T21:13:47.623Z,99971.06
2022-12-09T21:16:22.293Z,100054.53
2022-12-09T21:18:50.698Z,100082.94
2022-12-09T21:21:19.133Z,100039.91
2022-12-09T21:23:46.005Z,99912.59
2022-12-09T21:26:15.630Z,99969.34
2022-12-09T21:28:43.294Z,99962.47
2022-12-09T21:31:15.727Z,100060.56
2022-12-09T21:33:44.121Z,100082.97
2022-12-09T21:36:13.407Z,100082.97
2022-12-09T21:38:39.754Z,99857.56
2022-12-09T21:41:09.274Z,100065.72
2022-12-09T21:43:37.006Z,100101.88
2022-12-09T21:46:08.474Z,100088.09
2022-12-09T21:48:35.737Z,100015.81
2022-12-09T21:51:02.772Z,99963.28
2022-12-09T21:53:31.438Z,100004.59
2022-12-09T21:56:02.987Z,100071.75
2022-12-09T21:58:31.391Z,99995.16
2022-12-09T22:00:58.286Z,100058.81
2022-12-09T22:03:25.369Z,100098.41
2022-12-09T22:05:58.023Z,99966.72
2022-12-09T22:08:24.711Z,100016.66
2022-12-09T22:10:51.081Z,100082.97
2022-12-09T22:13:17.396Z,100076.91
2022-12-09T22:15:43.764Z,100055.38
2022-12-09T22:18:10.119Z,100078.63
2022-12-09T22:23:22.782Z,100082.00
2022-12-09T22:25:49.096Z,100072.50
2022-12-09T22:28:15.418Z,99984.63
2022-12-09T22:30:41.804Z,100036.22
2022-12-09T22:33:08.161Z,100022.47
2022-12-09T22:35:34.604Z,100086.22
2022-12-09T22:38:02.195Z,100078.50
2022-12-09T22:40:31.772Z,100073.34
2022-12-09T22:42:58.085Z,100006.16
2022-12-09T22:45:24.571Z,100076.78
2022-12-09T22:47:51.174Z,100105.19
2022-12-09T22:50:17.511Z,100023.38
2022-12-09T22:52:43.877Z,100084.53
2022-12-09T22:55:10.263Z,100056.97
2022-12-09T22:57:36.587Z,100091.41
2022-12-09T23:00:05.381Z,100096.56
2022-12-09T23:02:33.087Z,100096.59
2022-12-09T23:04:59.492Z,100089.66
2022-12-09T23:07:26.182Z,100049.13
2022-12-09T23:09:52.569Z,99959.59
2022-12-09T23:12:18.920Z,100099.06
2022-12-09T23:14:45.275Z,100093.88
2022-12-09T23:17:11.687Z,99993.09
2022-12-09T23:19:38.013Z,100120.53
2022-12-09T23:22:04.562Z,100142.09
2022-12-09T23:24:30.953Z,100115.41
2022-12-09T23:26:57.347Z,99963.78
2022-12-09T23:29:23.963Z,99991.31
2022-12-09T23:31:50.940Z,100086.03
2022-12-09T23:34:17.800Z,100134.06
2022-12-09T23:36:45.644Z,100097.84
2022-12-09T23:39:15.591Z,100139.22
2022-12-09T23:41:43.058Z,100112.53
2022-12-09T23:44:16.196Z,100073.84
2022-12-09T23:46:43.269Z,100125.59
2022-12-09T23:49:09.709Z,100132.47
2022-12-09T23:51:39.418Z,100127.28
2022-12-09T23:54:07.492Z,100085.03
2022-12-09T23:56:38.587Z,100147.97
2022-12-09T23:59:08.310Z,100130.69
